Time;durP1;ratioP1;P1;durP2;ratioP2;P2;SDS_P1;SDS_P2;PMS_P1;PMS_P2;Temp;Humidity;BMP_temperature;BMP_pressure;BME280_temperature;BME280_humidity;BME280_pressure;Samples;Min_cycle;Max_cycle;Signal;HPM_P1;HPM_P2
2023/10/05 00:02:55;;;;;;;2.53;1.93;;;24.10;77.60;;;;;;5093430;28;20455;-87
2023/10/05 00:05:26;;;;;;;1.80;1.43;;;24.10;77.70;;;;;;5094217;28;20458;-87
2023/10/05 00:07:53;;;;;;;1.90;1.73;;;24.10;77.70;;;;;;5093276;28;20491;-87
2023/10/05 00:10:21;;;;;;;1.80;1.60;;;24.10;77.70;;;;;;5094133;28;20447;-87
2023/10/05 00:12:48;;;;;;;1.73;1.63;;;24.10;77.70;;;;;;5093107;28;20527;-88
2023/10/05 00:15:16;;;;;;;1.77;1.67;;;24.10;77.70;;;;;;5092319;28;20534;-88
2023/10/05 00:17:43;;;;;;;2.17;1.50;;;24.10;77.70;;;;;;5092106;28;20435;-88
2023/10/05 00:20:14;;;;;;;2.00;1.70;;;24.00;77.60;;;;;;5092974;28;20930;-88
2023/10/05 00:22:42;;;;;;;2.33;1.80;;;24.00;77.60;;;;;;5093747;28;20805;-88
2023/10/05 00:25:10;;;;;;;2.00;1.40;;;24.10;77.70;;;;;;5093549;28;20882;-87
2023/10/05 00:27:39;;;;;;;2.37;1.30;;;24.10;77.70;;;;;;5093396;28;20489;-88
2023/10/05 00:30:07;;;;;;;1.70;1.50;;;24.10;77.80;;;;;;5093526;28;20442;-87
2023/10/05 00:32:39;;;;;;;2.60;1.57;;;24.00;77.70;;;;;;5093878;28;20432;-87
2023/10/05 00:35:16;;;;;;;1.57;1.40;;;24.10;77.80;;;;;;5093614;28;20788;-87
2023/10/05 00:37:44;;;;;;;2.80;1.97;;;24.10;77.80;;;;;;5093628;28;20439;-88
2023/10/05 00:40:23;;;;;;;2.03;1.70;;;24.00;77.70;;;;;;5092636;28;20807;-88
2023/10/05 00:42:51;;;;;;;3.03;1.90;;;24.10;77.80;;;;;;5093651;28;20439;-87
2023/10/05 00:45:24;;;;;;;2.07;1.40;;;24.10;77.80;;;;;;5093561;28;20443;-87
2023/10/05 00:47:52;;;;;;;1.90;1.63;;;24.10;77.80;;;;;;5093464;28;20486;-88
2023/10/05 00:50:19;;;;;;;2.43;1.50;;;24.10;78.60;;;;;;5093467;28;20436;-88
2023/10/05 00:52:46;;;;;;;1.90;1.70;;;24.10;77.80;;;;;;5093524;28;20841;-87
2023/10/05 00:55:14;;;;;;;2.47;1.53;;;24.00;77.70;;;;;;5093184;28;20435;-88
2023/10/05 00:57:41;;;;;;;1.90;1.70;;;24.00;77.60;;;;;;5093259;28;20958;-87
2023/10/05 01:00:26;;;;;;;1.70;1.60;;;24.10;77.70;;;;;;5093325;28;20447;-87
2023/10/05 01:03:11;;;;;;;1.80;1.63;;;24.00;77.70;;;;;;5093319;28;20509;-88
2023/10/05 01:05:51;;;;;;;2.10;1.43;;;24.10;77.80;;;;;;5093391;28;20440;-87
2023/10/05 01:08:23;;;;;;;3.37;2.20;;;24.00;77.70;;;;;;5093236;28;20487;-87
2023/10/05 01:10:54;;;;;;;1.50;1.40;;;24.00;77.70;;;;;;5093266;28;20578;-87
2023/10/05 01:13:28;;;;;;;1.97;1.77;;;24.00;77.70;;;;;;5093061;28;20445;-87
2023/10/05 01:15:57;;;;;;;1.50;1.20;;;24.00;77.80;;;;;;5093108;28;20439;-87
2023/10/05 01:18:25;;;;;;;2.13;1.67;;;24.00;77.70;;;;;;5094545;28;20435;-87
2023/10/05 01:20:53;;;;;;;1.60;1.40;;;24.00;77.80;;;;;;5097365;28;20510;-88
2023/10/05 01:23:30;;;;;;;2.00;1.40;;;24.00;77.70;;;;;;5097345;28;20530;-88
2023/10/05 01:25:58;;;;;;;2.37;2.13;;;24.10;77.80;;;;;;5097267;28;21090;-88
2023/10/05 01:28:24;;;;;;;2.67;2.20;;;24.00;77.70;;;;;;5097137;28;20479;-87
2023/10/05 01:30:55;;;;;;;1.97;1.67;;;24.00;77.70;;;;;;5097144;28;20440;-88
2023/10/05 01:33:22;;;;;;;1.67;1.57;;;24.00;78.60;;;;;;5097301;28;20533;-87
2023/10/05 01:35:49;;;;;;;1.67;1.53;;;24.00;77.80;;;;;;5097130;28;20794;-88
2023/10/05 01:38:18;;;;;;;2.17;1.97;;;24.00;77.70;;;;;;5097229;28;20455;-87
2023/10/05 01:40:53;;;;;;;1.77;1.67;;;24.00;77.80;;;;;;5097174;28;20442;-88
2023/10/05 01:43:22;;;;;;;1.70;1.57;;;24.00;77.70;;;;;;5097000;28;20922;-88
2023/10/05 01:45:50;;;;;;;1.53;1.40;;;24.00;77.70;;;;;;5096876;28;20785;-88
2023/10/05 01:48:18;;;;;;;1.90;1.57;;;24.00;77.70;;;;;;5096696;28;20506;-88
2023/10/05 01:50:45;;;;;;;2.00;1.80;;;24.00;77.70;;;;;;5096643;28;20496;-88
2023/10/05 01:53:16;;;;;;;1.60;1.50;;;24.00;77.70;;;;;;5096697;28;20439;-87
2023/10/05 01:55:44;;;;;;;1.67;1.50;;;24.00;77.70;;;;;;5096693;28;20435;-88
2023/10/05 01:58:26;;;;;;;1.93;1.60;;;24.00;77.70;;;;;;5096669;28;20514;-87
2023/10/05 02:00:54;;;;;;;1.60;1.40;;;24.10;77.80;;;;;;5096736;28;20439;-87
2023/10/05 02:03:23;;;;;;;1.60;1.27;;;24.00;77.70;;;;;;5096478;28;20526;-87
2023/10/05 02:05:53;;;;;;;1.80;1.53;;;24.00;77.70;;;;;;5096619;28;20438;-87
2023/10/05 02:08:21;;;;;;;2.17;1.80;;;24.00;77.70;;;;;;5096354;28;20495;-87
2023/10/05 02:10:50;;;;;;;2.07;1.60;;;24.00;77.70;;;;;;5096350;28;20442;-87
2023/10/05 02:13:18;;;;;;;1.70;1.60;;;24.00;77.70;;;;;;5096334;28;20530;-87
2023/10/05 02:15:47;;;;;;;2.30;1.93;;;24.00;77.70;;;;;;5096324;28;20435;-87
2023/10/05 02:18:22;;;;;;;2.60;1.63;;;24.00;77.70;;;;;;5096247;28;21107;-88
2023/10/05 02:20:51;;;;;;;1.70;1.40;;;24.00;77.70;;;;;;5096203;28;20442;-88
2023/10/05 02:23:25;;;;;;;1.40;1.30;;;24.00;77.70;;;;;;5096141;28;20436;-87
2023/10/05 02:25:57;;;;;;;2.03;1.27;;;24.00;77.70;;;;;;5096261;28;20432;-87
2023/10/05 02:28:33;;;;;;;2.13;1.57;;;24.00;77.70;;;;;;5096129;28;20479;-87
2023/10/05 02:31:01;;;;;;;1.80;1.27;;;24.00;77.70;;;;;;5095279;28;20509;-88
2023/10/05 02:33:32;;;;;;;2.60;1.63;;;24.00;77.70;;;;;;5095935;28;20934;-87
2023/10/05 02:36:10;;;;;;;1.57;1.47;;;24.00;77.70;;;;;;5096012;28;20493;-87
2023/10/05 02:38:38;;;;;;;2.37;1.57;;;24.00;77.60;;;;;;5095809;28;20481;-88
2023/10/05 02:41:08;;;;;;;1.90;1.60;;;24.00;77.70;;;;;;5095903;28;20436;-87
2023/10/05 02:43:42;;;;;;;1.50;1.40;;;24.00;77.70;;;;;;5095857;28;20438;-87
2023/10/05 02:46:10;;;;;;;2.37;1.70;;;24.00;77.70;;;;;;5095881;28;20431;-87
2023/10/05 02:48:39;;;;;;;2.07;1.73;;;24.00;77.70;;;;;;5095665;28;20487;-88
2023/10/05 02:51:06;;;;;;;1.97;1.73;;;23.90;77.60;;;;;;5095706;28;20439;-88
2023/10/05 02:53:41;;;;;;;1.40;1.20;;;24.00;77.60;;;;;;5095508;28;20853;-88
2023/10/05 02:56:20;;;;;;;1.70;1.60;;;24.00;77.70;;;;;;5095684;28;20437;-88
2023/10/05 02:58:51;;;;;;;1.50;1.40;;;23.90;77.60;;;;;;5095537;28;20821;-87
2023/10/05 03:01:18;;;;;;;3.00;1.57;;;23.90;77.60;;;;;;5095349;28;20490;-87
2023/10/05 03:03:44;;;;;;;2.10;1.63;;;23.90;77.60;;;;;;5095350;28;20518;-88
2023/10/05 03:06:11;;;;;;;1.87;1.50;;;23.90;77.60;;;;;;5095256;28;20530;-87
2023/10/05 03:08:39;;;;;;;2.00;1.80;;;23.90;77.70;;;;;;5095174;28;20484;-88
2023/10/05 03:11:08;;;;;;;1.80;1.60;;;23.90;77.60;;;;;;5095273;28;20439;-87
2023/10/05 03:13:37;;;;;;;2.00;1.40;;;23.90;77.60;;;;;;5095105;28;20534;-88
2023/10/05 03:16:10;;;;;;;1.50;1.30;;;23.90;77.60;;;;;;5095181;28;20561;-87
2023/10/05 03:18:38;;;;;;;2.10;1.70;;;23.90;77.60;;;;;;5095168;28;20435;-87
2023/10/05 03:21:11;;;;;;;1.67;1.50;;;23.90;77.60;;;;;;5095048;28;20949;-87
2023/10/05 03:23:40;;;;;;;2.90;1.40;;;23.90;77.70;;;;;;5095109;28;20538;-87
2023/10/05 03:26:08;;;;;;;2.40;1.50;;;23.90;77.70;;;;;;5094917;28;20919;-87
2023/10/05 03:28:35;;;;;;;2.03;1.50;;;23.90;78.50;;;;;;5094776;28;20483;-87
2023/10/05 03:31:07;;;;;;;1.93;1.67;;;23.90;77.70;;;;;;5094808;28;20448;-87
2023/10/05 03:33:36;;;;;;;2.03;1.80;;;23.90;77.70;;;;;;5094806;28;20439;-87
2023/10/05 03:36:06;;;;;;;2.30;1.50;;;24.00;77.80;;;;;;5094712;28;20452;-88
2023/10/05 03:38:35;;;;;;;1.70;1.60;;;23.80;77.60;;;;;;5094568;28;20956;-88
2023/10/05 03:41:04;;;;;;;1.90;1.70;;;23.90;77.60;;;;;;5094249;28;21000;-88
2023/10/05 03:43:32;;;;;;;1.70;1.40;;;23.90;77.70;;;;;;5094123;28;20443;-88
2023/10/05 03:46:07;;;;;;;1.87;1.60;;;23.80;77.60;;;;;;5094627;28;20435;-87
2023/10/05 03:48:38;;;;;;;1.40;1.13;;;23.90;77.70;;;;;;5094480;28;20812;-88
2023/10/05 03:51:15;;;;;;;2.90;1.70;;;23.80;77.60;;;;;;5094566;28;20435;-87
2023/10/05 03:53:42;;;;;;;1.70;1.40;;;23.90;77.70;;;;;;5094502;28;20922;-87
2023/10/05 03:56:12;;;;;;;2.20;1.90;;;23.80;77.60;;;;;;5094480;28;20438;-87
2023/10/05 03:58:39;;;;;;;1.47;1.37;;;23.80;77.70;;;;;;5094313;28;20487;-88
2023/10/05 04:01:10;;;;;;;1.93;1.60;;;23.80;77.70;;;;;;5094235;28;20442;-87
2023/10/05 04:03:39;;;;;;;1.50;1.40;;;23.80;77.70;;;;;;5094195;28;20518;-88
2023/10/05 04:06:17;;;;;;;2.53;1.53;;;23.80;77.70;;;;;;5094206;28;20435;-87
2023/10/05 04:08:46;;;;;;;1.87;1.33;;;23.80;77.70;;;;;;5094195;28;20475;-88
2023/10/05 04:11:13;;;;;;;2.10;1.63;;;23.80;77.70;;;;;;5093721;28;20522;-87
2023/10/05 04:13:39;;;;;;;3.10;1.33;;;23.80;77.70;;;;;;5092622;28;20463;-88
2023/10/05 04:16:09;;;;;;;1.30;1.10;;;23.80;77.70;;;;;;5092108;28;20439;-87
2023/10/05 04:18:36;;;;;;;1.53;1.40;;;23.80;77.70;;;;;;5093974;28;20546;-88
2023/10/05 04:21:06;;;;;;;1.50;1.33;;;23.80;77.70;;;;;;5094233;28;20467;-87
2023/10/05 04:23:33;;;;;;;2.53;1.43;;;23.80;77.70;;;;;;5094407;28;20436;-88
2023/10/05 04:26:01;;;;;;;1.63;1.37;;;23.80;77.80;;;;;;5094135;28;20431;-87
2023/10/05 04:28:34;;;;;;;1.63;1.30;;;23.80;77.70;;;;;;5094017;28;20471;-87
2023/10/05 04:31:02;;;;;;;1.50;1.40;;;23.80;77.70;;;;;;5094301;28;20427;-87
2023/10/05 04:33:31;;;;;;;1.80;1.33;;;23.80;77.80;;;;;;5093900;28;20534;-87
2023/10/05 04:35:58;;;;;;;1.60;1.30;;;23.80;77.80;;;;;;5094147;28;20436;-87
2023/10/05 04:38:27;;;;;;;1.77;1.40;;;23.80;77.80;;;;;;5093786;28;20542;-87
2023/10/05 04:40:54;;;;;;;1.60;1.30;;;23.80;77.70;;;;;;5093977;28;20450;-87
2023/10/05 04:43:21;;;;;;;1.47;1.37;;;23.90;77.90;;;;;;5094000;28;20443;-87
2023/10/05 04:45:50;;;;;;;1.40;1.20;;;23.80;77.80;;;;;;5093805;28;20446;-87
2023/10/05 04:48:18;;;;;;;2.30;1.40;;;23.80;77.80;;;;;;5093921;28;20436;-88
2023/10/05 04:50:47;;;;;;;2.40;1.40;;;23.90;77.90;;;;;;5093915;28;20436;-87
2023/10/05 04:53:14;;;;;;;1.90;1.60;;;23.80;77.80;;;;;;5093337;28;20439;-87
2023/10/05 04:55:43;;;;;;;2.27;1.90;;;23.80;77.80;;;;;;5093657;28;20921;-87
2023/10/05 04:58:21;;;;;;;1.43;1.20;;;23.80;77.80;;;;;;5093594;28;20489;-87
2023/10/05 05:01:04;;;;;;;1.83;1.50;;;23.80;77.80;;;;;;5093819;28;20432;-88
2023/10/05 05:03:48;;;;;;;1.50;1.33;;;23.80;77.90;;;;;;5093816;28;20497;-87
2023/10/05 05:06:16;;;;;;;1.30;1.10;;;23.80;77.80;;;;;;5093696;28;20466;-88
2023/10/05 05:08:43;;;;;;;1.50;1.40;;;23.80;77.90;;;;;;5093741;28;20479;-87
2023/10/05 05:11:19;;;;;;;1.50;1.20;;;23.80;77.90;;;;;;5093421;28;20447;-88
2023/10/05 05:13:46;;;;;;;1.63;1.53;;;23.80;77.90;;;;;;5093587;28;20436;-87
2023/10/05 05:16:14;;;;;;;2.90;1.53;;;23.80;77.90;;;;;;5093686;28;20526;-88
2023/10/05 05:18:42;;;;;;;1.87;1.33;;;23.80;77.90;;;;;;5093436;28;20444;-87
2023/10/05 05:21:11;;;;;;;2.07;1.33;;;23.70;77.80;;;;;;5093573;28;20952;-87
2023/10/05 05:23:39;;;;;;;2.13;1.70;;;23.80;77.80;;;;;;5093573;28;20446;-88
2023/10/05 05:26:09;;;;;;;2.57;1.50;;;23.70;77.80;;;;;;5093545;28;20485;-88
2023/10/05 05:28:38;;;;;;;2.10;1.63;;;23.80;77.90;;;;;;5093530;28;20435;-87
2023/10/05 05:31:11;;;;;;;3.00;1.20;;;23.70;77.80;;;;;;5093263;28;20439;-87
2023/10/05 05:33:39;;;;;;;1.90;1.47;;;23.80;77.90;;;;;;5093614;28;20542;-87
2023/10/05 05:36:10;;;;;;;1.57;1.40;;;23.70;77.80;;;;;;5094193;28;20971;-87
2023/10/05 05:38:38;;;;;;;1.87;1.43;;;23.80;78.00;;;;;;5093237;28;20806;-87
2023/10/05 05:41:11;;;;;;;1.30;1.10;;;23.70;77.80;;;;;;5093179;28;20447;-87
2023/10/05 05:43:40;;;;;;;1.50;1.40;;;23.90;78.00;;;;;;5093194;28;20838;-87
2023/10/05 05:46:12;;;;;;;2.53;1.27;;;23.70;77.80;;;;;;5093210;28;20443;-87
2023/10/05 05:48:39;;;;;;;1.80;1.40;;;23.70;77.80;;;;;;5093289;28;20458;-87
2023/10/05 05:51:10;;;;;;;2.27;1.50;;;23.70;77.80;;;;;;5093402;28;20440;-87
2023/10/05 05:53:37;;;;;;;2.83;1.63;;;23.80;77.90;;;;;;5093151;28;20526;-87
2023/10/05 05:56:04;;;;;;;1.60;1.50;;;23.70;77.90;;;;;;5093127;28;20459;-87
2023/10/05 05:58:31;;;;;;;1.50;1.40;;;23.70;77.80;;;;;;5093036;28;20446;-87
2023/10/05 06:00:59;;;;;;;1.40;1.10;;;23.70;77.80;;;;;;5093232;28;20435;-88
2023/10/05 06:03:27;;;;;;;1.77;1.63;;;23.80;77.90;;;;;;5093080;28;20438;-87
2023/10/05 06:05:55;;;;;;;1.80;1.10;;;23.70;77.80;;;;;;5095360;28;20466;-88
2023/10/05 06:08:22;;;;;;;1.50;1.13;;;23.70;77.90;;;;;;5096740;28;20502;-87
2023/10/05 06:10:51;;;;;;;3.33;1.30;;;23.70;77.80;;;;;;5096534;28;21053;-87
2023/10/05 06:13:19;;;;;;;1.50;1.30;;;23.70;77.90;;;;;;5096659;28;20482;-87
2023/10/05 06:15:46;;;;;;;1.97;1.77;;;23.80;77.90;;;;;;5096181;28;20508;-87
2023/10/05 06:18:14;;;;;;;1.60;1.50;;;23.70;77.80;;;;;;5096518;28;21009;-88
2023/10/05 06:20:41;;;;;;;1.90;1.60;;;23.70;77.80;;;;;;5096530;28;20431;-88
2023/10/05 06:23:08;;;;;;;2.30;1.30;;;23.80;77.90;;;;;;5096448;28;20435;-88
2023/10/05 06:25:35;;;;;;;2.10;1.70;;;23.70;77.80;;;;;;5096657;28;20439;-88
2023/10/05 06:28:02;;;;;;;1.37;1.27;;;23.70;77.70;;;;;;5096577;28;20458;-88
2023/10/05 06:30:29;;;;;;;1.40;1.30;;;23.80;77.80;;;;;;5097043;28;20483;-89
2023/10/05 06:32:58;;;;;;;3.20;2.23;;;23.80;77.80;;;;;;5096167;28;20431;-88
2023/10/05 06:35:26;;;;;;;3.40;1.70;;;23.80;77.70;;;;;;5096319;28;20440;-88
2023/10/05 06:37:53;;;;;;;2.10;1.63;;;23.70;77.60;;;;;;5096074;28;20460;-88
2023/10/05 06:40:22;;;;;;;2.07;1.47;;;23.80;77.60;;;;;;5096325;28;20820;-88
2023/10/05 06:42:49;;;;;;;2.27;1.57;;;23.80;77.50;;;;;;5096327;28;20431;-88
2023/10/05 06:45:19;;;;;;;1.43;1.30;;;23.70;77.40;;;;;;5095945;28;20442;-88
2023/10/05 06:47:48;;;;;;;1.33;1.20;;;23.70;77.40;;;;;;5096108;28;20432;-88
2023/10/05 06:50:15;;;;;;;2.60;1.57;;;23.70;77.30;;;;;;5096061;28;20515;-88
2023/10/05 06:52:44;;;;;;;2.20;1.93;;;23.70;77.30;;;;;;5096089;28;20832;-88
2023/10/05 06:55:12;;;;;;;1.63;1.53;;;23.70;77.30;;;;;;5095787;28;20454;-88
2023/10/05 06:57:43;;;;;;;1.93;1.73;;;23.70;77.30;;;;;;5096013;28;20436;-88
2023/10/05 07:00:16;;;;;;;1.50;1.40;;;23.70;77.30;;;;;;5095960;28;20857;-88
2023/10/05 07:02:43;;;;;;;1.87;1.30;;;23.70;77.30;;;;;;5095457;28;20862;-88
2023/10/05 07:05:11;;;;;;;1.63;1.50;;;23.70;77.40;;;;;;5095912;28;20441;-88
2023/10/05 07:07:38;;;;;;;2.00;1.70;;;23.80;77.40;;;;;;5095490;28;20431;-88
2023/10/05 07:10:08;;;;;;;1.93;1.73;;;23.70;77.30;;;;;;5095689;28;20498;-88
2023/10/05 07:12:38;;;;;;;2.13;1.70;;;23.70;77.20;;;;;;5095524;28;20443;-88
2023/10/05 07:15:06;;;;;;;1.60;1.30;;;23.70;76.80;;;;;;5095451;28;20774;-88
2023/10/05 07:17:33;;;;;;;2.47;1.50;;;23.70;76.90;;;;;;5095405;28;20471;-88
2023/10/05 07:20:01;;;;;;;1.63;1.33;;;23.70;77.10;;;;;;5095537;28;20446;-88
2023/10/05 07:22:28;;;;;;;3.00;1.70;;;23.70;77.00;;;;;;5095411;28;20440;-88
2023/10/05 07:24:56;;;;;;;4.83;1.80;;;23.70;77.00;;;;;;5095479;28;20465;-88
2023/10/05 07:27:24;;;;;;;2.33;1.70;;;23.70;76.90;;;;;;5095452;28;20450;-88
2023/10/05 07:29:51;;;;;;;1.90;1.50;;;23.70;76.90;;;;;;5094738;28;20485;-87
2023/10/05 07:32:17;;;;;;;3.07;2.10;;;23.70;77.00;;;;;;5095229;28;20522;-91
2023/10/05 07:34:44;;;;;;;1.90;1.40;;;23.70;76.50;;;;;;5095387;28;20526;-89
2023/10/05 07:37:11;;;;;;;4.90;2.30;;;23.70;76.60;;;;;;5095243;28;20865;-89
2023/10/05 07:39:40;;;;;;;5.87;2.00;;;23.80;77.00;;;;;;5094945;28;20470;-88
2023/10/05 07:42:09;;;;;;;3.73;1.80;;;23.80;76.90;;;;;;5094973;28;20439;-89
2023/10/05 07:44:39;;;;;;;3.27;1.63;;;23.70;76.80;;;;;;5095112;28;20447;-88
2023/10/05 07:47:07;;;;;;;2.80;2.00;;;23.70;77.00;;;;;;5094828;28;20427;-87
2023/10/05 07:49:35;;;;;;;2.53;2.17;;;23.80;77.20;;;;;;5094907;28;20494;-87
2023/10/05 07:52:03;;;;;;;2.80;2.17;;;23.70;76.90;;;;;;5094677;28;20444;-87
2023/10/05 07:54:31;;;;;;;3.23;2.00;;;23.80;77.00;;;;;;5094468;28;20438;-88
2023/10/05 07:57:00;;;;;;;3.40;1.90;;;23.80;76.90;;;;;;5094735;28;20926;-90
2023/10/05 07:59:27;;;;;;;4.80;1.70;;;23.80;76.90;;;;;;5094134;28;20550;-90
2023/10/05 08:01:55;;;;;;;2.90;1.97;;;23.80;76.90;;;;;;5094004;28;20978;-89
2023/10/05 08:04:23;;;;;;;1.70;1.60;;;23.80;77.00;;;;;;5094517;28;20446;-87
2023/10/05 08:06:50;;;;;;;2.53;1.93;;;23.80;77.00;;;;;;5094443;28;20518;-87
2023/10/05 08:09:20;;;;;;;4.10;2.03;;;23.80;77.00;;;;;;5094231;28;20542;-88
2023/10/05 08:11:47;;;;;;;3.40;1.90;;;23.80;76.90;;;;;;5094058;28;20486;-87
2023/10/05 08:14:17;;;;;;;2.13;1.57;;;23.80;76.90;;;;;;5093947;28;20439;-90
2023/10/05 08:16:44;;;;;;;2.60;1.43;;;23.80;76.90;;;;;;5093730;28;20443;-87
2023/10/05 08:19:12;;;;;;;2.60;1.80;;;23.90;76.90;;;;;;5093706;28;20439;-87
2023/10/05 08:21:40;;;;;;;3.33;1.70;;;23.80;76.80;;;;;;5093827;28;20427;-87
2023/10/05 08:24:07;;;;;;;2.67;1.93;;;23.80;77.60;;;;;;5093983;28;20442;-87
2023/10/05 08:26:34;;;;;;;2.97;1.60;;;23.80;76.60;;;;;;5094055;28;20443;-87
2023/10/05 08:29:01;;;;;;;2.33;1.70;;;23.80;76.70;;;;;;5093363;28;20443;-88
2023/10/05 08:31:28;;;;;;;5.43;2.27;;;23.90;76.70;;;;;;5094792;28;20483;-87
2023/10/05 08:33:55;;;;;;;2.90;1.67;;;24.00;76.80;;;;;;5093791;28;20926;-86
2023/10/05 08:36:25;;;;;;;3.40;2.00;;;24.00;76.80;;;;;;5093883;28;20436;-87
2023/10/05 08:38:54;;;;;;;3.10;1.77;;;24.00;76.50;;;;;;5094011;28;20456;-87
2023/10/05 08:41:31;;;;;;;3.67;2.10;;;24.10;76.70;;;;;;5093889;28;20437;-88
2023/10/05 08:43:59;;;;;;;5.80;2.10;;;24.10;74.70;;;;;;5094054;28;20488;-88
2023/10/05 08:46:26;;;;;;;7.97;2.10;;;24.10;74.70;;;;;;5093965;28;20438;-88
2023/10/05 08:48:55;;;;;;;2.67;1.93;;;24.20;75.00;;;;;;5093244;28;20439;-88
2023/10/05 08:51:24;;;;;;;6.10;2.23;;;24.30;75.50;;;;;;5093500;28;20577;-89
2023/10/05 08:53:57;;;;;;;3.37;2.23;;;24.30;76.30;;;;;;5093455;28;20446;-88
2023/10/05 08:56:25;;;;;;;2.57;1.80;;;24.30;75.40;;;;;;5093622;28;20779;-87
2023/10/05 08:58:53;;;;;;;3.53;2.10;;;24.30;75.30;;;;;;5093246;28;20992;-87
2023/10/05 09:01:29;;;;;;;4.60;1.90;;;24.40;75.50;;;;;;5092584;28;20984;-87
2023/10/05 09:04:01;;;;;;;4.43;2.17;;;24.40;75.40;;;;;;5073111;28;20451;-87
2023/10/05 09:06:30;;;;;;;1.93;1.47;;;24.40;75.30;;;;;;5072929;28;20539;-87
2023/10/05 09:09:07;;;;;;;1.70;1.50;;;24.40;75.20;;;;;;5090598;28;20456;-91
2023/10/05 09:11:35;;;;;;;5.37;1.60;;;24.50;75.70;;;;;;5096677;28;20491;-90
2023/10/05 09:14:12;;;;;;;2.93;1.93;;;24.50;75.90;;;;;;5098714;28;20451;-93
2023/10/05 09:16:42;;;;;;;3.73;2.00;;;24.50;75.20;;;;;;5095454;28;20446;-88
2023/10/05 09:19:12;;;;;;;3.57;1.90;;;24.50;75.60;;;;;;5094146;28;20436;-87
2023/10/05 09:21:45;;;;;;;3.50;2.10;;;24.50;75.60;;;;;;5094414;28;20449;-92
2023/10/05 09:24:20;;;;;;;3.43;1.97;;;24.50;75.90;;;;;;5095089;28;20471;-91
2023/10/05 09:26:51;;;;;;;1.97;1.53;;;24.50;75.60;;;;;;5094699;28;20433;-91
2023/10/05 09:29:22;;;;;;;5.70;2.03;;;24.50;75.50;;;;;;5095438;28;20436;-90
2023/10/05 09:31:54;;;;;;;8.30;2.27;;;24.50;76.10;;;;;;5094913;28;20555;-90
2023/10/05 09:34:39;;;;;;;2.33;1.63;;;24.50;75.70;;;;;;5093933;28;20539;-89
2023/10/05 09:37:09;;;;;;;2.47;1.87;;;24.50;76.10;;;;;;5093045;28;20439;-89
2023/10/05 09:39:42;;;;;;;3.13;1.73;;;24.50;75.60;;;;;;5094974;28;20447;-89
2023/10/05 09:42:17;;;;;;;2.83;1.77;;;24.50;75.70;;;;;;5096571;28;20443;-87
2023/10/05 09:44:54;;;;;;;3.60;1.43;;;24.50;76.10;;;;;;5097054;28;20474;-88
2023/10/05 09:47:25;;;;;;;3.67;1.50;;;24.50;75.90;;;;;;5097404;28;20977;-86
2023/10/05 09:49:56;;;;;;;3.60;2.00;;;24.50;76.10;;;;;;5098402;28;20911;-94
2023/10/05 09:52:34;;;;;;;5.37;1.97;;;24.50;76.20;;;;;;5098756;28;20435;-87
2023/10/05 09:55:05;;;;;;;2.37;1.70;;;24.40;75.70;;;;;;5098988;28;20827;-86
2023/10/05 09:57:40;;;;;;;4.63;1.93;;;24.40;75.90;;;;;;5099569;28;20523;-86
2023/10/05 10:00:13;;;;;;;5.77;2.37;;;24.40;75.90;;;;;;5098215;28;20481;-87
2023/10/05 10:02:42;;;;;;;4.00;2.00;;;24.40;75.90;;;;;;5097646;28;20463;-87
2023/10/05 10:05:29;;;;;;;2.00;1.80;;;24.40;76.00;;;;;;5098370;28;20428;-86
2023/10/05 10:08:07;;;;;;;4.90;1.70;;;24.40;76.10;;;;;;5097735;28;20806;-86
2023/10/05 10:10:36;;;;;;;2.30;1.37;;;24.40;76.00;;;;;;5098106;28;20478;-86
2023/10/05 10:13:11;;;;;;;2.60;1.50;;;24.40;76.30;;;;;;5098033;28;20470;-86
2023/10/05 10:15:39;;;;;;;2.07;1.40;;;24.40;76.20;;;;;;5098112;28;20459;-86
2023/10/05 10:18:14;;;;;;;2.33;1.50;;;24.40;76.20;;;;;;5097736;28;20474;-86
2023/10/05 10:20:47;;;;;;;2.30;1.50;;;24.40;76.10;;;;;;5097344;28;20488;-87
2023/10/05 10:23:22;;;;;;;2.20;1.80;;;24.40;76.50;;;;;;5096612;28;20477;-86
2023/10/05 10:25:50;;;;;;;6.67;1.70;;;24.40;77.00;;;;;;5096590;28;20421;-90
2023/10/05 10:28:24;;;;;;;5.20;1.47;;;24.40;76.70;;;;;;5096430;28;20439;-91
2023/10/05 10:31:13;;;;;;;2.90;1.67;;;24.40;76.90;;;;;;5096443;28;20486;-85
2023/10/05 10:33:41;;;;;;;2.60;1.70;;;24.40;76.90;;;;;;5096309;28;20486;-92
2023/10/05 10:36:18;;;;;;;1.50;1.20;;;24.40;76.90;;;;;;5096487;28;20431;-91
2023/10/05 10:38:47;;;;;;;2.87;1.43;;;24.40;76.80;;;;;;5096268;28;20451;-85
2023/10/05 10:41:17;;;;;;;1.93;1.60;;;24.40;76.80;;;;;;5096328;28;20439;-85
2023/10/05 10:43:49;;;;;;;3.07;1.37;;;24.40;76.80;;;;;;5096275;28;20446;-91
2023/10/05 10:46:28;;;;;;;2.30;1.40;;;24.40;76.70;;;;;;5096332;28;20427;-91
2023/10/05 10:48:58;;;;;;;3.33;1.73;;;24.40;76.70;;;;;;5096193;28;20436;-85
2023/10/05 10:51:31;;;;;;;4.93;1.60;;;24.40;76.80;;;;;;5095404;28;20490;-90
2023/10/05 10:54:02;;;;;;;2.80;1.87;;;24.40;76.80;;;;;;5096293;28;20481;-85
2023/10/05 10:56:41;;;;;;;2.00;1.67;;;24.40;76.80;;;;;;5096373;28;20442;-88
